Airfield :
LOGIN :

Register | Disclaimer

   EN    FR    IT 

 










Legend :    VFR   Marginal VFR   IFR   Intensive IFR   Very Intensive IFR
Visi :
Ceiling :
>= 8 km
>= 3000ft
5 to 8 km
1000 to 3000 ft
1500m to 5 km
500 to 1000 ft
800 to 1500m
200 to 500 ft
< 800m
< 200 ft
Symbols :   Thunderstorms  Fog  Heavy snow  Heavy precipitations  Wind > 20 kt
SIGMETs :     Misc.  Thunderstorms  Icing  Turbulence  Mountain Waves  Volcanic Ashes






- Airport Elevation : 266 ft
- IATA code : NCL


EGNT - Newcastle

CURRENT METAR :
  • 261150Z 35014KT 9999 BKN023 11/06 Q1014

EXPIRED METARs :
  • 261120Z 34016KT 9999 FEW015 BKN020 11/06 Q1014
  • 261050Z 33017KT 9999 FEW015 BKN020 10/06 Q1013
  • 261020Z 33015KT 9999 FEW021 BKN045 10/06 Q1013
  • 260950Z 34015KT 9999 FEW015 BKN044 10/06 Q1013
  • 260920Z 34015KT 9999 FEW015 SCT028 09/05 Q1013

TAF TAF EGNT
Valid from the 26 at 12:00 until the 27 at 12:00 UTC


261053Z 2612/2712 34012KT 9999 FEW040
TEMPO 2612/2624 36018G28KT
PROB30
TEMPO 2700/2709 36015G25KT
ATIS : +44 191 214 3400



MET'MAP, your aeronautical weather chart ! - Copyright ORBIFLY December 2007 - Disclaimer

ORBIFLY MET'MAP TEAM :

Programming & Development : Alexandra Zaïnal
Concept & original design : Baudouin d'Aumeries
Assistance for programming : Marc-Olivier Méhu
Technical & hardware support : Manuel Goepfert

Contact : metmap@orbifly.com




SOURCES & CREDITS :

   NOAA